sensor_id;sensor_type;location;lat;lon;timestamp;pressure;altitude;pressure_sealevel;temperature;humidity
54910;BME280;63189;51.240;9.964;2023-12-07T00:01:32;97993.78;;;1.08;100.00
54910;BME280;63189;51.240;9.964;2023-12-07T00:04:00;97996.34;;;1.08;100.00
54910;BME280;63189;51.240;9.964;2023-12-07T00:06:25;97978.31;;;0.99;100.00
54910;BME280;63189;51.240;9.964;2023-12-07T00:08:50;98002.34;;;1.11;100.00
54910;BME280;63189;51.240;9.964;2023-12-07T00:11:16;97998.06;;;1.10;100.00
54910;BME280;63189;51.240;9.964;2023-12-07T00:13:41;98003.22;;;1.12;100.00
54910;BME280;63189;51.240;9.964;2023-12-07T00:16:06;98008.34;;;1.10;100.00
54910;BME280;63189;51.240;9.964;2023-12-07T00:18:32;98002.34;;;1.08;100.00
54910;BME280;63189;51.240;9.964;2023-12-07T00:20:57;98003.22;;;1.10;100.00
54910;BME280;63189;51.240;9.964;2023-12-07T00:23:23;98000.63;;;1.09;100.00
54910;BME280;63189;51.240;9.964;2023-12-07T00:25:48;98000.66;;;1.12;100.00
54910;BME280;63189;51.240;9.964;2023-12-07T00:28:14;98010.06;;;1.13;100.00
54910;BME280;63189;51.240;9.964;2023-12-07T00:30:39;98011.78;;;1.14;100.00
54910;BME280;63189;51.240;9.964;2023-12-07T00:33:07;98014.38;;;1.15;100.00
54910;BME280;63189;51.240;9.964;2023-12-07T00:35:32;98016.06;;;1.13;100.00
54910;BME280;63189;51.240;9.964;2023-12-07T00:37:58;98019.47;;;1.11;100.00
54910;BME280;63189;51.240;9.964;2023-12-07T00:40:23;98010.91;;;1.12;100.00
54910;BME280;63189;51.240;9.964;2023-12-07T00:42:49;98019.53;;;1.17;100.00
54910;BME280;63189;51.240;9.964;2023-12-07T00:45:14;98016.09;;;1.15;100.00
54910;BME280;63189;51.240;9.964;2023-12-07T00:47:40;98029.81;;;1.17;100.00
54910;BME280;63189;51.240;9.964;2023-12-07T00:50:05;98022.91;;;1.13;100.00
54910;BME280;63189;51.240;9.964;2023-12-07T00:52:31;98028.94;;;1.15;100.00
54910;BME280;63189;51.240;9.964;2023-12-07T00:54:57;98034.09;;;1.17;100.00
54910;BME280;63189;51.240;9.964;2023-12-07T00:57:22;98039.22;;;1.17;100.00
54910;BME280;63189;51.240;9.964;2023-12-07T00:59:48;98042.66;;;1.17;100.00
54910;BME280;63189;51.240;9.964;2023-12-07T01:02:13;98034.94;;;1.17;100.00
54910;BME280;63189;51.240;9.964;2023-12-07T01:04:39;98044.34;;;1.15;100.00
54910;BME280;63189;51.240;9.964;2023-12-07T01:07:04;98036.63;;;1.15;100.00
54910;BME280;63189;51.240;9.964;2023-12-07T01:09:29;98050.34;;;1.17;100.00
54910;BME280;63189;51.240;9.964;2023-12-07T01:11:55;98051.22;;;1.19;100.00
54910;BME280;63189;51.240;9.964;2023-12-07T01:14:20;98058.06;;;1.19;100.00
54910;BME280;63189;51.240;9.964;2023-12-07T01:16:45;98054.63;;;1.18;100.00
54910;BME280;63189;51.240;9.964;2023-12-07T01:19:11;98053.78;;;1.19;100.00
54910;BME280;63189;51.240;9.964;2023-12-07T01:21:40;98060.63;;;1.17;100.00
54910;BME280;63189;51.240;9.964;2023-12-07T01:24:07;98061.50;;;1.21;100.00
54910;BME280;63189;51.240;9.964;2023-12-07T01:26:32;98057.19;;;1.18;100.00
54910;BME280;63189;51.240;9.964;2023-12-07T01:28:57;98062.34;;;1.21;100.00
54910;BME280;63189;51.240;9.964;2023-12-07T01:31:23;98069.22;;;1.22;100.00
54910;BME280;63189;51.240;9.964;2023-12-07T01:33:48;98069.22;;;1.22;100.00
54910;BME280;63189;51.240;9.964;2023-12-07T01:36:13;98064.06;;;1.19;100.00
54910;BME280;63189;51.240;9.964;2023-12-07T01:38:39;98071.75;;;1.19;100.00
54910;BME280;63189;51.240;9.964;2023-12-07T01:41:04;98066.63;;;1.19;100.00
54910;BME280;63189;51.240;9.964;2023-12-07T01:43:30;98073.47;;;1.22;100.00
54910;BME280;63189;51.240;9.964;2023-12-07T01:45:57;98080.34;;;1.23;100.00
54910;BME280;63189;51.240;9.964;2023-12-07T01:48:24;98081.19;;;1.23;100.00
54910;BME280;63189;51.240;9.964;2023-12-07T01:50:52;98078.63;;;1.22;100.00
54910;BME280;63189;51.240;9.964;2023-12-07T01:53:18;98090.59;;;1.23;100.00
54910;BME280;63189;51.240;9.964;2023-12-07T01:55:43;98082.03;;;1.19;100.00
54910;BME280;63189;51.240;9.964;2023-12-07T01:58:10;98088.91;;;1.23;100.00
54910;BME280;63189;51.240;9.964;2023-12-07T02:00:35;98088.06;;;1.24;100.00
54910;BME280;63189;51.240;9.964;2023-12-07T02:03:04;98084.63;;;1.22;100.00
54910;BME280;63189;51.240;9.964;2023-12-07T02:05:31;98088.94;;;1.26;100.00
54910;BME280;63189;51.240;9.964;2023-12-07T02:07:58;98084.69;;;1.28;100.00
54910;BME280;63189;51.240;9.964;2023-12-07T02:10:24;98084.66;;;1.27;100.00
54910;BME280;63189;51.240;9.964;2023-12-07T02:12:49;98087.19;;;1.21;100.00
54910;BME280;63189;51.240;9.964;2023-12-07T02:15:15;98094.88;;;1.22;100.00
54910;BME280;63189;51.240;9.964;2023-12-07T02:17:44;98095.75;;;1.23;100.00
54910;BME280;63189;51.240;9.964;2023-12-07T02:20:20;98097.44;;;1.22;100.00
54910;BME280;63189;51.240;9.964;2023-12-07T02:22:51;98099.16;;;1.22;100.00
54910;BME280;63189;51.240;9.964;2023-12-07T02:25:19;98099.16;;;1.22;100.00
54910;BME280;63189;51.240;9.964;2023-12-07T02:27:48;98098.31;;;1.21;100.00
54910;BME280;63189;51.240;9.964;2023-12-07T02:30:14;98108.59;;;1.24;100.00
54910;BME280;63189;51.240;9.964;2023-12-07T02:32:42;98106.88;;;1.23;100.00
54910;BME280;63189;51.240;9.964;2023-12-07T02:35:09;98102.59;;;1.21;100.00
54910;BME280;63189;51.240;9.964;2023-12-07T02:37:48;98097.44;;;1.19;100.00
54910;BME280;63189;51.240;9.964;2023-12-07T02:40:17;98099.16;;;1.19;100.00
54910;BME280;63189;51.240;9.964;2023-12-07T02:42:43;98098.28;;;1.18;100.00
54910;BME280;63189;51.240;9.964;2023-12-07T02:45:11;98106.84;;;1.17;100.00
54910;BME280;63189;51.240;9.964;2023-12-07T02:47:38;98099.09;;;1.14;100.00
54910;BME280;63189;51.240;9.964;2023-12-07T02:50:06;98104.22;;;1.12;100.00
54910;BME280;63189;51.240;9.964;2023-12-07T02:52:32;98105.91;;;1.09;100.00
54910;BME280;63189;51.240;9.964;2023-12-07T02:54:57;98115.31;;;1.07;100.00
54910;BME280;63189;51.240;9.964;2023-12-07T02:57:23;98110.13;;;1.04;100.00
54910;BME280;63189;51.240;9.964;2023-12-07T02:59:48;98111.78;;;0.97;100.00
54910;BME280;63189;51.240;9.964;2023-12-07T03:02:13;98115.19;;;0.95;100.00
54910;BME280;63189;51.240;9.964;2023-12-07T03:04:39;98118.56;;;0.91;100.00
54910;BME280;63189;51.240;9.964;2023-12-07T03:07:04;98126.28;;;0.94;100.00
54910;BME280;63189;51.240;9.964;2023-12-07T03:09:29;98129.72;;;0.94;100.00
54910;BME280;63189;51.240;9.964;2023-12-07T03:11:55;98120.28;;;0.92;100.00
54910;BME280;63189;51.240;9.964;2023-12-07T03:14:20;98133.09;;;0.90;100.00
54910;BME280;63189;51.240;9.964;2023-12-07T03:16:45;98127.94;;;0.89;100.00
54910;BME280;63189;51.240;9.964;2023-12-07T03:19:11;98137.38;;;0.91;100.00
54910;BME280;63189;51.240;9.964;2023-12-07T03:21:40;98132.25;;;0.93;100.00
54910;BME280;63189;51.240;9.964;2023-12-07T03:24:06;98151.13;;;0.95;100.00
54910;BME280;63189;51.240;9.964;2023-12-07T03:26:33;98138.25;;;0.92;100.00
54910;BME280;63189;51.240;9.964;2023-12-07T03:28:59;98133.16;;;0.95;100.00
54910;BME280;63189;51.240;9.964;2023-12-07T03:31:24;98139.09;;;0.94;100.00
54910;BME280;63189;51.240;9.964;2023-12-07T03:33:49;98136.59;;;0.95;100.00
54910;BME280;63189;51.240;9.964;2023-12-07T03:36:15;98130.50;;;0.89;100.00
54910;BME280;63189;51.240;9.964;2023-12-07T03:38:40;98148.53;;;0.93;100.00
54910;BME280;63189;51.240;9.964;2023-12-07T03:41:06;98145.09;;;0.91;100.00
54910;BME280;63189;51.240;9.964;2023-12-07T03:43:31;98145.06;;;0.90;100.00
54910;BME280;63189;51.240;9.964;2023-12-07T03:45:56;98146.78;;;0.92;100.00
54910;BME280;63189;51.240;9.964;2023-12-07T03:48:22;98142.50;;;0.90;100.00
54910;BME280;63189;51.240;9.964;2023-12-07T03:50:47;98143.31;;;0.84;100.00
54910;BME280;63189;51.240;9.964;2023-12-07T03:53:12;98142.47;;;0.86;100.00
54910;BME280;63189;51.240;9.964;2023-12-07T03:55:38;98151.91;;;0.89;100.00
54910;BME280;63189;51.240;9.964;2023-12-07T03:58:04;98143.28;;;0.82;100.00
54910;BME280;63189;51.240;9.964;2023-12-07T04:00:31;98153.66;;;0.93;100.00
54910;BME280;63189;51.240;9.964;2023-12-07T04:02:56;98157.97;;;0.96;100.00
54910;BME280;63189;51.240;9.964;2023-12-07T04:05:22;98152.00;;;0.95;100.00
54910;BME280;63189;51.240;9.964;2023-12-07T04:07:47;98150.28;;;0.94;100.00
54910;BME280;63189;51.240;9.964;2023-12-07T04:10:13;98139.09;;;0.94;100.00
54910;BME280;63189;51.240;9.964;2023-12-07T04:12:38;98152.84;;;0.94;100.00
54910;BME280;63189;51.240;9.964;2023-12-07T04:15:04;98155.41;;;0.96;100.00
54910;BME280;63189;51.240;9.964;2023-12-07T04:17:29;98160.56;;;0.96;100.00
54910;BME280;63189;51.240;9.964;2023-12-07T04:19:55;98146.88;;;0.97;100.00
54910;BME280;63189;51.240;9.964;2023-12-07T04:22:20;98157.16;;;0.98;100.00
54910;BME280;63189;51.240;9.964;2023-12-07T04:24:45;98159.72;;;1.00;100.00
54910;BME280;63189;51.240;9.964;2023-12-07T04:27:11;98149.44;;;0.98;100.00
54910;BME280;63189;51.240;9.964;2023-12-07T04:29:36;98152.03;;;1.00;100.00
54910;BME280;63189;51.240;9.964;2023-12-07T04:32:01;98149.44;;;1.00;100.00
54910;BME280;63189;51.240;9.964;2023-12-07T04:34:27;98151.19;;;1.04;100.00
54910;BME280;63189;51.240;9.964;2023-12-07T04:36:53;98152.09;;;1.07;100.00
54910;BME280;63189;51.240;9.964;2023-12-07T04:39:18;98160.69;;;1.09;100.00
54910;BME280;63189;51.240;9.964;2023-12-07T04:41:43;98164.09;;;1.10;100.00
54910;BME280;63189;51.240;9.964;2023-12-07T04:44:09;98164.97;;;1.12;100.00
54910;BME280;63189;51.240;9.964;2023-12-07T04:46:34;98162.41;;;1.12;100.00
54910;BME280;63189;51.240;9.964;2023-12-07T04:49:00;98163.28;;;1.12;100.00
54910;BME280;63189;51.240;9.964;2023-12-07T04:51:26;98159.00;;;1.13;100.00
54910;BME280;63189;51.240;9.964;2023-12-07T04:53:51;98167.63;;;1.17;100.00
54910;BME280;63189;51.240;9.964;2023-12-07T04:56:16;98169.31;;;1.16;100.00
54910;BME280;63189;51.240;9.964;2023-12-07T04:58:42;98165.03;;;1.15;100.00
54910;BME280;63189;51.240;9.964;2023-12-07T05:01:07;98158.13;;;1.11;100.00
54910;BME280;63189;51.240;9.964;2023-12-07T05:03:32;98165.03;;;1.15;100.00
54910;BME280;63189;51.240;9.964;2023-12-07T05:05:58;98171.88;;;1.16;100.00
54910;BME280;63189;51.240;9.964;2023-12-07T05:08:23;98172.75;;;1.18;100.00
54910;BME280;63189;51.240;9.964;2023-12-07T05:10:49;98164.19;;;1.16;100.00
54910;BME280;63189;51.240;9.964;2023-12-07T05:13:14;98164.97;;;1.10;100.00
54910;BME280;63189;51.240;9.964;2023-12-07T05:15:39;98172.69;;;1.13;100.00
54910;BME280;63189;51.240;9.964;2023-12-07T05:18:05;98172.69;;;1.12;100.00
54910;BME280;63189;51.240;9.964;2023-12-07T05:20:30;98166.66;;;1.08;100.00
54910;BME280;63189;51.240;9.964;2023-12-07T05:22:56;98171.78;;;1.07;100.00
54910;BME280;63189;51.240;9.964;2023-12-07T05:25:21;98171.78;;;1.07;100.00
54910;BME280;63189;51.240;9.964;2023-12-07T05:27:46;98164.94;;;1.04;100.00
54910;BME280;63189;51.240;9.964;2023-12-07T05:30:12;98161.44;;;1.02;100.00
54910;BME280;63189;51.240;9.964;2023-12-07T05:32:40;98171.78;;;1.07;100.00
54910;BME280;63189;51.240;9.964;2023-12-07T05:35:06;98164.03;;;1.04;100.00
54910;BME280;63189;51.240;9.964;2023-12-07T05:37:32;98159.81;;;1.06;100.00
54910;BME280;63189;51.240;9.964;2023-12-07T05:39:57;98169.16;;;1.02;100.00
54910;BME280;63189;51.240;9.964;2023-12-07T05:42:22;98170.00;;;1.03;100.00
54910;BME280;63189;51.240;9.964;2023-12-07T05:44:48;98181.13;;;1.02;100.00
54910;BME280;63189;51.240;9.964;2023-12-07T05:47:13;98173.44;;;1.02;100.00
54910;BME280;63189;51.240;9.964;2023-12-07T05:49:38;98179.41;;;1.01;100.00
54910;BME280;63189;51.240;9.964;2023-12-07T05:52:04;98177.75;;;1.04;100.00
54910;BME280;63189;51.240;9.964;2023-12-07T05:54:30;98181.19;;;1.05;100.00
54910;BME280;63189;51.240;9.964;2023-12-07T05:56:55;98183.78;;;1.08;100.00
54910;BME280;63189;51.240;9.964;2023-12-07T05:59:20;98178.63;;;1.06;100.00
54910;BME280;63189;51.240;9.964;2023-12-07T06:01:46;98177.75;;;1.04;100.00
54910;BME280;63189;51.240;9.964;2023-12-07T06:04:11;98174.25;;;0.98;100.00
54910;BME280;63189;51.240;9.964;2023-12-07T06:06:37;98182.81;;;0.98;100.00
54910;BME280;63189;51.240;9.964;2023-12-07T06:09:03;98191.38;;;0.97;100.00
54910;BME280;63189;51.240;9.964;2023-12-07T06:11:31;98193.88;;;0.93;100.00
54910;BME280;63189;51.240;9.964;2023-12-07T06:13:56;98188.72;;;0.93;100.00
54910;BME280;63189;51.240;9.964;2023-12-07T06:16:24;98186.13;;;0.90;100.00
54910;BME280;63189;51.240;9.964;2023-12-07T06:18:49;98183.53;;;0.83;100.00
54910;BME280;63189;51.240;9.964;2023-12-07T06:21:15;98198.97;;;0.90;100.00
54910;BME280;63189;51.240;9.964;2023-12-07T06:23:40;98202.41;;;0.92;100.00
54910;BME280;63189;51.240;9.964;2023-12-07T06:26:07;98189.53;;;0.85;100.00
54910;BME280;63189;51.240;9.964;2023-12-07T06:28:32;98204.94;;;0.89;100.00
54910;BME280;63189;51.240;9.964;2023-12-07T06:30:58;98204.06;;;0.83;100.00
54910;BME280;63189;51.240;9.964;2023-12-07T06:33:24;98211.78;;;0.88;100.00
54910;BME280;63189;51.240;9.964;2023-12-07T06:35:49;98215.22;;;0.87;100.00
54910;BME280;63189;51.240;9.964;2023-12-07T06:38:14;98212.63;;;0.85;100.00
54910;BME280;63189;51.240;9.964;2023-12-07T06:40:40;98214.34;;;0.88;100.00
54910;BME280;63189;51.240;9.964;2023-12-07T06:43:05;98212.63;;;0.85;100.00
54910;BME280;63189;51.240;9.964;2023-12-07T06:45:30;98216.03;;;0.84;100.00
54910;BME280;63189;51.240;9.964;2023-12-07T06:47:56;98219.50;;;0.88;100.00
54910;BME280;63189;51.240;9.964;2023-12-07T06:50:21;98229.75;;;0.86;100.00
54910;BME280;63189;51.240;9.964;2023-12-07T06:52:47;98219.44;;;0.83;100.00
54910;BME280;63189;51.240;9.964;2023-12-07T06:55:12;98228.81;;;0.83;100.00
54910;BME280;63189;51.240;9.964;2023-12-07T06:57:39;98223.69;;;0.83;100.00
54910;BME280;63189;51.240;9.964;2023-12-07T07:00:06;98228.03;;;0.85;100.00
54910;BME280;63189;51.240;9.964;2023-12-07T07:02:37;98227.16;;;0.85;100.00
54910;BME280;63189;51.240;9.964;2023-12-07T07:05:02;98228.03;;;0.85;100.00
54910;BME280;63189;51.240;9.964;2023-12-07T07:07:28;98228.88;;;0.84;100.00
54910;BME280;63189;51.240;9.964;2023-12-07T07:09:56;98238.31;;;0.89;100.00
54910;BME280;63189;51.240;9.964;2023-12-07T07:12:22;98234.91;;;0.90;100.00
54910;BME280;63189;51.240;9.964;2023-12-07T07:14:48;98232.38;;;0.93;100.00
54910;BME280;63189;51.240;9.964;2023-12-07T07:17:14;98230.63;;;0.89;100.00
54910;BME280;63189;51.240;9.964;2023-12-07T07:19:39;98236.59;;;0.88;100.00
54910;BME280;63189;51.240;9.964;2023-12-07T07:22:04;98234.00;;;0.84;100.00
54910;BME280;63189;51.240;9.964;2023-12-07T07:24:30;98234.88;;;0.86;100.00
54910;BME280;63189;51.240;9.964;2023-12-07T07:26:55;98239.97;;;0.83;100.00
54910;BME280;63189;51.240;9.964;2023-12-07T07:29:20;98247.72;;;0.86;100.00
54910;BME280;63189;51.240;9.964;2023-12-07T07:31:46;98240.88;;;0.87;100.00
54910;BME280;63189;51.240;9.964;2023-12-07T07:34:11;98249.34;;;0.83;100.00
54910;BME280;63189;51.240;9.964;2023-12-07T07:36:36;98251.97;;;0.84;100.00
54910;BME280;63189;51.240;9.964;2023-12-07T07:39:02;98253.69;;;0.85;100.00
54910;BME280;63189;51.240;9.964;2023-12-07T07:41:29;98258.75;;;0.82;100.00
54910;BME280;63189;51.240;9.964;2023-12-07T07:43:55;98251.13;;;0.84;100.00
54910;BME280;63189;51.240;9.964;2023-12-07T07:46:20;98266.53;;;0.85;100.00
54910;BME280;63189;51.240;9.964;2023-12-07T07:48:46;98251.97;;;0.84;100.00
54910;BME280;63189;51.240;9.964;2023-12-07T07:51:11;98249.34;;;0.81;100.00
54910;BME280;63189;51.240;9.964;2023-12-07T07:53:36;98250.25;;;0.83;100.00
54910;BME280;63189;51.240;9.964;2023-12-07T07:56:02;98246.78;;;0.81;100.00
54910;BME280;63189;51.240;9.964;2023-12-07T07:58:27;98251.97;;;0.84;100.00
54910;BME280;63189;51.240;9.964;2023-12-07T08:00:53;98256.25;;;0.85;100.00
54910;BME280;63189;51.240;9.964;2023-12-07T08:03:18;98251.06;;;0.82;100.00
54910;BME280;63189;51.240;9.964;2023-12-07T08:05:44;98255.38;;;0.83;100.00
54910;BME280;63189;51.240;9.964;2023-12-07T08:08:10;98262.19;;;0.81;100.00
54910;BME280;63189;51.240;9.964;2023-12-07T08:10:35;98257.97;;;0.85;100.00
54910;BME280;63189;51.240;9.964;2023-12-07T08:13:00;98258.72;;;0.79;100.00
54910;BME280;63189;51.240;9.964;2023-12-07T08:15:26;98267.38;;;0.84;100.00
54910;BME280;63189;51.240;9.964;2023-12-07T08:17:51;98265.69;;;0.86;100.00
54910;BME280;63189;51.240;9.964;2023-12-07T08:20:17;98264.84;;;0.88;100.00
54910;BME280;63189;51.240;9.964;2023-12-07T08:22:43;98275.94;;;0.86;100.00
54910;BME280;63189;51.240;9.964;2023-12-07T08:25:10;98272.56;;;0.91;100.00
54910;BME280;63189;51.240;9.964;2023-12-07T08:27:39;98266.56;;;0.90;100.00
54910;BME280;63189;51.240;9.964;2023-12-07T08:30:05;98267.41;;;0.88;100.00
54910;BME280;63189;51.240;9.964;2023-12-07T08:32:31;98275.16;;;0.92;100.00
54910;BME280;63189;51.240;9.964;2023-12-07T08:34:57;98270.06;;;0.95;100.00
54910;BME280;63189;51.240;9.964;2023-12-07T08:37:22;98265.75;;;0.93;100.00
54910;BME280;63189;51.240;9.964;2023-12-07T08:39:47;98270.88;;;0.93;100.00
54910;BME280;63189;51.240;9.964;2023-12-07T08:42:13;98263.13;;;0.90;100.00
54910;BME280;63189;51.240;9.964;2023-12-07T08:44:39;98260.53;;;0.85;100.00
54910;BME280;63189;51.240;9.964;2023-12-07T08:47:04;98256.28;;;0.89;100.00
54910;BME280;63189;51.240;9.964;2023-12-07T08:49:30;98261.38;;;0.85;100.00
54910;BME280;63189;51.240;9.964;2023-12-07T08:51:56;98262.25;;;0.88;100.00
54910;BME280;63189;51.240;9.964;2023-12-07T08:54:22;98264.03;;;0.92;100.00
54910;BME280;63189;51.240;9.964;2023-12-07T08:56:47;98263.22;;;0.94;100.00
54910;BME280;63189;51.240;9.964;2023-12-07T08:59:13;98258.84;;;0.89;100.00
54910;BME280;63189;51.240;9.964;2023-12-07T09:01:38;98266.53;;;0.85;100.00
54910;BME280;63189;51.240;9.964;2023-12-07T09:04:03;98271.69;;;0.87;100.00
54910;BME280;63189;51.240;9.964;2023-12-07T09:06:30;98264.81;;;0.84;100.00
54910;BME280;63189;51.240;9.964;2023-12-07T09:08:56;98272.50;;;0.84;100.00
54910;BME280;63189;51.240;9.964;2023-12-07T09:11:21;98275.97;;;0.90;100.00
54910;BME280;63189;51.240;9.964;2023-12-07T09:13:47;98269.97;;;0.86;100.00
54910;BME280;63189;51.240;9.964;2023-12-07T09:16:12;98265.69;;;0.86;100.00
54910;BME280;63189;51.240;9.964;2023-12-07T09:18:38;98269.09;;;0.85;100.00
54910;BME280;63189;51.240;9.964;2023-12-07T09:21:05;98268.22;;;0.85;100.00
54910;BME280;63189;51.240;9.964;2023-12-07T09:23:34;98273.38;;;0.85;100.00
54910;BME280;63189;51.240;9.964;2023-12-07T09:26:00;98279.28;;;0.82;100.00
54910;BME280;63189;51.240;9.964;2023-12-07T09:28:28;98267.28;;;0.78;100.00
54910;BME280;63189;51.240;9.964;2023-12-07T09:30:54;98270.72;;;0.80;100.00
54910;BME280;63189;51.240;9.964;2023-12-07T09:33:19;98268.13;;;0.77;100.00
54910;BME280;63189;51.240;9.964;2023-12-07T09:35:45;98270.78;;;0.83;100.00
54910;BME280;63189;51.240;9.964;2023-12-07T09:38:10;98274.22;;;0.85;100.00
54910;BME280;63189;51.240;9.964;2023-12-07T09:40:36;98272.53;;;0.88;100.00
54910;BME280;63189;51.240;9.964;2023-12-07T09:43:02;98276.84;;;0.92;100.00
54910;BME280;63189;51.240;9.964;2023-12-07T09:45:27;98265.75;;;0.93;100.00
54910;BME280;63189;51.240;9.964;2023-12-07T09:47:54;98269.22;;;0.95;100.00
54910;BME280;63189;51.240;9.964;2023-12-07T09:50:21;98256.28;;;0.89;100.00
54910;BME280;63189;51.240;9.964;2023-12-07T09:52:51;98271.81;;;0.99;100.00
54910;BME280;63189;51.240;9.964;2023-12-07T09:55:18;98264.97;;;1.00;100.00
54910;BME280;63189;51.240;9.964;2023-12-07T09:57:45;98277.03;;;1.05;100.00
54910;BME280;63189;51.240;9.964;2023-12-07T10:00:11;98276.19;;;1.05;100.00
54910;BME280;63189;51.240;9.964;2023-12-07T10:02:40;98276.94;;;0.98;100.00
54910;BME280;63189;51.240;9.964;2023-12-07T10:05:10;98266.69;;;0.99;100.00
54910;BME280;63189;51.240;9.964;2023-12-07T10:07:40;98257.28;;;1.00;100.00
54910;BME280;63189;51.240;9.964;2023-12-07T10:10:06;98260.78;;;1.05;100.00
54910;BME280;63189;51.240;9.964;2023-12-07T10:12:33;98266.72;;;1.02;100.00
54910;BME280;63189;51.240;9.964;2023-12-07T10:15:15;98261.59;;;1.02;100.00
54910;BME280;63189;51.240;9.964;2023-12-07T10:20:20;98264.22;;;1.05;100.00
54910;BME280;63189;51.240;9.964;2023-12-07T10:25:36;98261.66;;;1.07;100.00
54910;BME280;63189;51.240;9.964;2023-12-07T10:28:02;98264.28;;;1.13;100.00
54910;BME280;63189;51.240;9.964;2023-12-07T10:30:37;98260.00;;;1.13;100.00
54910;BME280;63189;51.240;9.964;2023-12-07T10:33:03;98266.06;;;1.19;100.00
54910;BME280;63189;51.240;9.964;2023-12-07T10:35:30;98252.28;;;1.12;100.00
54910;BME280;63189;51.240;9.964;2023-12-07T10:37:56;98260.91;;;1.17;100.00
54910;BME280;63189;51.240;9.964;2023-12-07T10:40:23;98267.81;;;1.24;100.00
54910;BME280;63189;51.240;9.964;2023-12-07T10:42:48;98241.16;;;1.11;100.00
54910;BME280;63189;51.240;9.964;2023-12-07T10:45:15;98262.84;;;1.36;100.00
54910;BME280;63189;51.240;9.964;2023-12-07T10:47:44;98250.03;;;1.38;100.00
54910;BME280;63189;51.240;9.964;2023-12-07T10:50:10;98263.88;;;1.54;100.00
54910;BME280;63189;51.240;9.964;2023-12-07T10:52:48;98246.91;;;1.71;100.00
54910;BME280;63189;51.240;9.964;2023-12-07T10:55:17;98239.31;;;1.86;100.00
54910;BME280;63189;51.240;9.964;2023-12-07T10:57:46;98244.69;;;2.12;100.00
54910;BME280;63189;51.240;9.964;2023-12-07T11:00:12;98229.34;;;2.26;100.00
54910;BME280;63189;51.240;9.964;2023-12-07T11:02:38;98228.63;;;2.50;100.00
54910;BME280;63189;51.240;9.964;2023-12-07T11:05:05;98220.16;;;2.62;100.00
54910;BME280;63189;51.240;9.964;2023-12-07T11:16:04;98200.50;;;2.88;100.00
54910;BME280;63189;51.240;9.964;2023-12-07T11:18:29;98199.66;;;2.81;100.00
54910;BME280;63189;51.240;9.964;2023-12-07T11:20:55;98209.13;;;2.95;100.00
54910;BME280;63189;51.240;9.964;2023-12-07T11:23:22;98205.78;;;3.17;100.00
54910;BME280;63189;51.240;9.964;2023-12-07T11:25:48;98195.50;;;3.28;100.00
54910;BME280;63189;51.240;9.964;2023-12-07T11:28:14;98197.25;;;3.45;100.00
54910;BME280;63189;51.240;9.964;2023-12-07T11:30:45;98197.22;;;3.41;100.00
54910;BME280;63189;51.240;9.964;2023-12-07T11:33:11;98197.25;;;3.50;100.00
54910;BME280;63189;51.240;9.964;2023-12-07T11:36:03;98198.13;;;3.57;100.00
54910;BME280;63189;51.240;9.964;2023-12-07T11:38:29;98195.53;;;3.57;100.00
54910;BME280;63189;51.240;9.964;2023-12-07T11:40:55;98174.03;;;3.52;100.00
54910;BME280;63189;51.240;9.964;2023-12-07T11:45:59;98174.91;;;3.46;100.00
54910;BME280;63189;51.240;9.964;2023-12-07T11:48:25;98184.34;;;3.42;100.00
54910;BME280;63189;51.240;9.964;2023-12-07T11:51:00;98180.06;;;3.34;100.00
54910;BME280;63189;51.240;9.964;2023-12-07T11:53:27;98180.06;;;3.34;100.00
54910;BME280;63189;51.240;9.964;2023-12-07T11:55:55;98177.44;;;3.29;100.00
54910;BME280;63189;51.240;9.964;2023-12-07T11:58:21;98186.84;;;3.04;100.00
54910;BME280;63189;51.240;9.964;2023-12-07T12:00:47;98194.50;;;2.84;100.00
54910;BME280;63189;51.240;9.964;2023-12-07T12:03:13;98185.84;;;2.67;100.00
54910;BME280;63189;51.240;9.964;2023-12-07T12:05:40;98177.16;;;2.42;100.00
54910;BME280;63189;51.240;9.964;2023-12-07T12:08:06;98184.88;;;2.48;100.00
54910;BME280;63189;51.240;9.964;2023-12-07T12:10:32;98188.31;;;2.44;100.00
54910;BME280;63189;51.240;9.964;2023-12-07T12:13:01;98183.97;;;2.39;100.00
54910;BME280;63189;51.240;9.964;2023-12-07T12:15:27;98171.94;;;2.35;100.00
54910;BME280;63189;51.240;9.964;2023-12-07T12:17:55;98172.91;;;2.52;100.00
54910;BME280;63189;51.240;9.964;2023-12-07T12:20:21;98165.19;;;2.58;100.00
54910;BME280;63189;51.240;9.964;2023-12-07T12:22:46;98160.09;;;2.70;100.00
54910;BME280;63189;51.240;9.964;2023-12-07T12:25:12;98140.34;;;2.65;100.00
54910;BME280;63189;51.240;9.964;2023-12-07T12:27:38;98153.31;;;2.84;100.00
54910;BME280;63189;51.240;9.964;2023-12-07T12:30:04;98159.31;;;2.91;100.00
54910;BME280;63189;51.240;9.964;2023-12-07T12:32:45;98159.31;;;2.91;100.00
54910;BME280;63189;51.240;9.964;2023-12-07T12:35:10;98164.41;;;2.76;100.00
54910;BME280;63189;51.240;9.964;2023-12-07T12:37:38;98146.34;;;2.62;100.00
54910;BME280;63189;51.240;9.964;2023-12-07T12:40:08;98156.63;;;2.57;100.00
54910;BME280;63189;51.240;9.964;2023-12-07T12:42:34;98150.59;;;2.54;100.00
54910;BME280;63189;51.240;9.964;2023-12-07T12:45:03;98114.41;;;2.19;100.00
54910;BME280;63189;51.240;9.964;2023-12-07T12:47:29;98148.81;;;2.39;100.00
54910;BME280;63189;51.240;9.964;2023-12-07T12:49:54;98147.94;;;2.36;100.00
54910;BME280;63189;51.240;9.964;2023-12-07T12:52:19;98162.63;;;2.52;100.00
54910;BME280;63189;51.240;9.964;2023-12-07T12:54:46;98141.97;;;2.43;100.00
54910;BME280;63189;51.240;9.964;2023-12-07T12:57:12;98161.81;;;2.62;100.00
54910;BME280;63189;51.240;9.964;2023-12-07T12:59:39;98135.13;;;2.49;100.00
54910;BME280;63189;51.240;9.964;2023-12-07T13:02:04;98149.75;;;2.52;100.00
54910;BME280;63189;51.240;9.964;2023-12-07T13:04:30;98149.75;;;2.59;100.00
54910;BME280;63189;51.240;9.964;2023-12-07T13:06:56;98148.03;;;2.52;100.00
54910;BME280;63189;51.240;9.964;2023-12-07T13:09:21;98143.63;;;2.31;100.00
54910;BME280;63189;51.240;9.964;2023-12-07T13:11:47;98141.94;;;2.32;100.00